Time;durP1;ratioP1;P1;durP2;ratioP2;P2;SDS_P1;SDS_P2;PMS_P1;PMS_P2;Temp;Humidity;BMP_temperature;BMP_pressure;BME280_temperature;BME280_humidity;BME280_pressure;Samples;Min_cycle;Max_cycle;Signal;HPM_P1;HPM_P2
2023/08/17 00:01:20;;;;;;;3.38;2.63;;;24.70;71.20;;;;;;4997159;28;20248;-83
2023/08/17 00:03:47;;;;;;;4.93;3.05;;;24.70;71.30;;;;;;4997264;28;20201;-81
2023/08/17 00:06:14;;;;;;;4.22;2.80;;;24.70;71.30;;;;;;4997091;28;20220;-82
2023/08/17 00:08:41;;;;;;;4.10;2.95;;;24.70;71.40;;;;;;4997221;28;20231;-82
2023/08/17 00:11:08;;;;;;;3.10;2.70;;;24.70;71.30;;;;;;4997952;28;20221;-82
2023/08/17 00:13:35;;;;;;;4.57;2.90;;;24.70;71.30;;;;;;4997663;28;20193;-82
2023/08/17 00:16:02;;;;;;;4.85;2.92;;;24.70;71.20;;;;;;5001132;28;20196;-82
2023/08/17 00:18:31;;;;;;;5.35;3.05;;;24.70;71.10;;;;;;5001156;28;20216;-82
2023/08/17 00:20:58;;;;;;;3.75;2.85;;;24.70;71.10;;;;;;5001182;28;20247;-82
2023/08/17 00:23:24;;;;;;;3.58;2.83;;;24.70;71.00;;;;;;5001063;28;20660;-82
2023/08/17 00:25:51;;;;;;;4.35;3.00;;;24.70;70.90;;;;;;5001406;28;20204;-82
2023/08/17 00:28:18;;;;;;;3.03;2.55;;;24.70;70.70;;;;;;5001141;28;20250;-82
2023/08/17 00:30:45;;;;;;;3.97;2.58;;;24.70;70.60;;;;;;5000936;28;20628;-82
2023/08/17 00:33:12;;;;;;;3.67;2.80;;;24.70;70.60;;;;;;5000666;28;20196;-82
2023/08/17 00:35:42;;;;;;;3.85;2.50;;;24.70;70.50;;;;;;5000720;28;20577;-82
2023/08/17 00:38:09;;;;;;;4.07;2.95;;;24.70;70.40;;;;;;5000879;28;20224;-82
2023/08/17 00:40:36;;;;;;;4.38;2.83;;;24.70;71.10;;;;;;5000428;28;20238;-82
2023/08/17 00:43:03;;;;;;;3.47;2.60;;;24.70;70.20;;;;;;5000399;28;20188;-82
2023/08/17 00:45:30;;;;;;;3.42;2.50;;;24.70;70.20;;;;;;5000495;28;20718;-82
2023/08/17 00:47:57;;;;;;;3.45;2.60;;;24.70;70.20;;;;;;5000848;28;20201;-82
2023/08/17 00:50:25;;;;;;;4.60;2.90;;;24.70;70.10;;;;;;5000473;28;20216;-82
2023/08/17 00:52:54;;;;;;;4.05;2.70;;;24.70;70.00;;;;;;4999808;28;20208;-82
2023/08/17 00:55:21;;;;;;;3.58;3.08;;;24.70;70.00;;;;;;5000443;28;20199;-82
2023/08/17 00:57:48;;;;;;;3.30;2.70;;;24.70;69.90;;;;;;4984347;28;20205;-82
2023/08/17 01:00:15;;;;;;;3.28;2.85;;;24.70;69.90;;;;;;4999698;28;20229;-82
2023/08/17 01:02:42;;;;;;;3.03;2.83;;;24.70;69.80;;;;;;5000385;28;20204;-82
2023/08/17 01:05:09;;;;;;;4.25;2.60;;;24.70;69.70;;;;;;4999852;28;20197;-82
2023/08/17 01:07:37;;;;;;;4.72;2.85;;;24.70;69.50;;;;;;4999709;28;20207;-82
2023/08/17 01:10:06;;;;;;;4.68;3.08;;;24.70;69.60;;;;;;4999778;28;20199;-82
2023/08/17 01:12:34;;;;;;;4.10;2.70;;;24.70;69.40;;;;;;5000027;28;20208;-82
2023/08/17 01:15:05;;;;;;;3.13;2.83;;;24.70;69.40;;;;;;5017246;28;20207;-82
2023/08/17 01:17:34;;;;;;;4.18;2.90;;;24.70;69.40;;;;;;4999798;28;20204;-82
2023/08/17 01:20:01;;;;;;;4.18;2.80;;;24.70;69.40;;;;;;5001355;28;20227;-82
2023/08/17 01:22:27;;;;;;;3.63;2.30;;;24.70;69.40;;;;;;5000270;28;20197;-82
2023/08/17 01:24:59;;;;;;;3.20;2.63;;;24.70;69.40;;;;;;4999815;28;20648;-82
2023/08/17 01:27:27;;;;;;;2.90;2.50;;;24.70;69.40;;;;;;4999865;28;20193;-82
2023/08/17 01:29:54;;;;;;;2.88;2.67;;;24.70;69.40;;;;;;5000027;28;20188;-82
2023/08/17 01:32:25;;;;;;;3.67;2.78;;;24.70;69.40;;;;;;4999509;28;20663;-82
2023/08/17 01:34:55;;;;;;;3.13;2.70;;;24.70;69.40;;;;;;4999990;28;20181;-82
2023/08/17 01:37:22;;;;;;;3.00;2.67;;;24.70;69.40;;;;;;4999285;28;20196;-82
2023/08/17 01:39:50;;;;;;;3.40;3.10;;;24.70;69.30;;;;;;4999023;28;20251;-82
2023/08/17 01:42:19;;;;;;;2.85;2.65;;;24.70;69.30;;;;;;5016996;28;20204;-82
2023/08/17 01:44:46;;;;;;;3.10;2.80;;;24.70;69.30;;;;;;5000028;28;20208;-82
2023/08/17 01:47:15;;;;;;;2.92;2.72;;;24.70;69.50;;;;;;4999158;28;20678;-82
2023/08/17 01:49:42;;;;;;;2.95;2.67;;;24.70;69.30;;;;;;5002607;28;20188;-82
2023/08/17 01:52:09;;;;;;;3.13;2.80;;;24.70;69.30;;;;;;4999494;28;20224;-82
2023/08/17 01:54:37;;;;;;;3.03;2.72;;;24.70;69.30;;;;;;4998974;28;20228;-82
2023/08/17 01:57:04;;;;;;;2.90;2.53;;;24.70;69.30;;;;;;5007163;28;20200;-82
2023/08/17 01:59:32;;;;;;;3.50;2.80;;;24.70;69.20;;;;;;5020665;28;20284;-82
2023/08/17 02:01:59;;;;;;;3.90;2.90;;;24.70;69.10;;;;;;5015608;28;20251;-83
2023/08/17 02:04:26;;;;;;;3.50;2.95;;;24.70;69.10;;;;;;5013577;28;20196;-83
2023/08/17 02:06:53;;;;;;;3.20;2.90;;;24.70;69.10;;;;;;5011566;28;20200;-82
2023/08/17 02:09:20;;;;;;;3.30;3.00;;;24.70;69.00;;;;;;4999020;28;20192;-82
2023/08/17 02:11:47;;;;;;;3.03;2.60;;;24.70;68.90;;;;;;4982664;28;20220;-82
2023/08/17 02:14:13;;;;;;;2.88;2.60;;;24.70;68.90;;;;;;5004148;28;20200;-82
2023/08/17 02:16:42;;;;;;;2.83;2.60;;;24.70;68.90;;;;;;5009036;28;20193;-82
2023/08/17 02:19:08;;;;;;;3.10;2.80;;;24.70;68.90;;;;;;5007909;28;20220;-82
2023/08/17 02:21:35;;;;;;;2.92;2.65;;;24.70;68.90;;;;;;5007918;28;20227;-82
2023/08/17 02:24:02;;;;;;;3.13;2.90;;;24.70;68.80;;;;;;4991075;28;20578;-82
2023/08/17 02:26:30;;;;;;;3.15;2.85;;;24.70;68.80;;;;;;5006127;28;20204;-82
2023/08/17 02:28:57;;;;;;;3.05;2.70;;;24.70;68.80;;;;;;5004965;28;20201;-82
2023/08/17 02:31:25;;;;;;;2.92;2.72;;;24.70;68.80;;;;;;5005733;28;20208;-82
2023/08/17 02:33:53;;;;;;;2.80;2.33;;;24.70;68.80;;;;;;5004448;28;20539;-82
2023/08/17 02:36:20;;;;;;;2.60;2.40;;;24.70;68.90;;;;;;5004698;28;20246;-82
2023/08/17 02:38:47;;;;;;;2.92;2.63;;;24.70;68.80;;;;;;5003073;28;20703;-82
2023/08/17 02:41:21;;;;;;;3.22;2.90;;;24.70;68.90;;;;;;4987662;28;20565;-82
2023/08/17 02:43:49;;;;;;;2.78;2.42;;;24.70;68.80;;;;;;4999425;28;20287;-82
2023/08/17 02:46:16;;;;;;;2.83;2.63;;;24.70;68.90;;;;;;4997753;28;20255;-82
2023/08/17 02:48:43;;;;;;;2.88;2.63;;;24.70;68.80;;;;;;4997723;28;20200;-82
2023/08/17 02:51:11;;;;;;;2.78;2.58;;;24.70;68.80;;;;;;4997630;28;20216;-82
2023/08/17 02:53:38;;;;;;;2.80;2.55;;;24.70;69.40;;;;;;4997837;28;20201;-81
2023/08/17 02:56:06;;;;;;;2.47;2.38;;;24.70;68.60;;;;;;4998437;28;20200;-82
2023/08/17 02:58:34;;;;;;;2.67;2.47;;;24.70;68.50;;;;;;4998120;28;20197;-82
2023/08/17 03:01:03;;;;;;;2.78;2.58;;;24.70;68.50;;;;;;4997511;28;20223;-82
2023/08/17 03:03:30;;;;;;;3.30;2.58;;;24.70;68.40;;;;;;4997644;28;20206;-82
2023/08/17 03:05:57;;;;;;;2.85;2.58;;;24.70;68.30;;;;;;4997924;28;20204;-82
2023/08/17 03:08:26;;;;;;;2.88;2.63;;;24.70;68.30;;;;;;4997939;28;20575;-82
2023/08/17 03:10:53;;;;;;;3.03;2.83;;;24.70;68.20;;;;;;4998222;28;20299;-82
2023/08/17 03:13:21;;;;;;;3.28;2.95;;;24.70;68.20;;;;;;4999255;28;20196;-82
2023/08/17 03:15:48;;;;;;;3.13;2.83;;;24.70;68.20;;;;;;4997981;28;20286;-82
2023/08/17 03:18:16;;;;;;;3.20;3.00;;;24.70;68.10;;;;;;4997782;28;20230;-82
2023/08/17 03:20:45;;;;;;;3.05;2.85;;;24.80;68.20;;;;;;4998116;28;20683;-82
2023/08/17 03:23:12;;;;;;;2.78;2.58;;;24.90;68.00;;;;;;4997281;28;20288;-81
2023/08/17 03:25:42;;;;;;;3.20;2.90;;;24.90;67.70;;;;;;4997099;28;20207;-83
2023/08/17 03:28:09;;;;;;;3.20;2.90;;;25.00;67.40;;;;;;4997256;28;20224;-83
2023/08/17 03:30:36;;;;;;;3.22;2.92;;;25.10;67.10;;;;;;4996704;28;20217;-83
2023/08/17 03:33:04;;;;;;;4.03;3.22;;;25.10;66.80;;;;;;4997362;28;20676;-82
2023/08/17 03:35:32;;;;;;;3.00;2.80;;;25.20;66.70;;;;;;4997121;28;20204;-82
2023/08/17 03:38:00;;;;;;;3.22;2.92;;;25.20;66.40;;;;;;4997062;28;20287;-82
2023/08/17 03:40:27;;;;;;;3.10;2.90;;;25.20;66.20;;;;;;4996912;28;20223;-83
2023/08/17 03:42:55;;;;;;;3.17;2.90;;;25.30;66.20;;;;;;5011828;22;20208;-82
2023/08/17 03:45:22;;;;;;;3.10;2.80;;;25.30;66.10;;;;;;4994056;28;20610;-82
2023/08/17 03:47:51;;;;;;;3.40;2.80;;;25.30;66.10;;;;;;4993801;28;20204;-82
2023/08/17 03:50:18;;;;;;;2.92;2.72;;;25.30;65.90;;;;;;4978510;28;20232;-82
2023/08/17 03:52:46;;;;;;;3.28;2.97;;;25.30;65.90;;;;;;4978250;28;20729;-82
2023/08/17 03:55:12;;;;;;;3.10;2.80;;;25.30;65.90;;;;;;4994236;28;20726;-83
2023/08/17 03:57:40;;;;;;;2.80;2.60;;;25.30;65.80;;;;;;4994103;28;20610;-82
2023/08/17 04:00:11;;;;;;;2.85;2.65;;;25.40;65.90;;;;;;4994359;28;20220;-82
2023/08/17 04:02:40;;;;;;;3.17;2.92;;;25.40;65.90;;;;;;4995772;28;20220;-81
2023/08/17 04:05:08;;;;;;;3.25;2.95;;;25.40;66.70;;;;;;4994298;28;20224;-81
2023/08/17 04:07:36;;;;;;;3.25;3.05;;;25.30;65.80;;;;;;4978223;28;20691;-82
2023/08/17 04:10:05;;;;;;;3.17;2.83;;;25.40;65.70;;;;;;4977753;28;20200;-82
2023/08/17 04:12:33;;;;;;;3.55;3.25;;;25.40;65.70;;;;;;4993931;28;20203;-82
2023/08/17 04:15:00;;;;;;;3.72;3.40;;;25.40;65.60;;;;;;4994078;28;20200;-82
2023/08/17 04:17:28;;;;;;;3.30;3.00;;;25.40;65.60;;;;;;4978181;28;20227;-81
2023/08/17 04:19:56;;;;;;;3.55;3.10;;;25.30;65.80;;;;;;4977798;28;20247;-81
2023/08/17 04:22:23;;;;;;;3.20;3.00;;;25.40;65.80;;;;;;4977737;28;20293;-81
2023/08/17 04:24:50;;;;;;;3.67;3.05;;;25.30;65.70;;;;;;4978452;28;20263;-82
2023/08/17 04:27:18;;;;;;;3.30;3.00;;;25.30;65.80;;;;;;4977957;28;20295;-82
2023/08/17 04:29:45;;;;;;;3.25;3.05;;;25.30;65.80;;;;;;4978184;28;20208;-82
2023/08/17 04:32:16;;;;;;;3.58;2.90;;;25.30;65.70;;;;;;4994222;28;20221;-82
2023/08/17 04:34:45;;;;;;;3.63;3.33;;;25.30;65.70;;;;;;4978333;28;20675;-82
2023/08/17 04:37:14;;;;;;;3.58;3.33;;;25.30;65.70;;;;;;4978199;28;20517;-84
2023/08/17 04:39:43;;;;;;;6.03;5.40;;;25.30;65.60;;;;;;4978246;28;20220;-83
2023/08/17 04:42:11;;;;;;;8.73;6.90;;;25.30;66.60;;;;;;4995166;28;20567;-83
2023/08/17 04:44:39;;;;;;;7.80;6.80;;;25.10;68.20;;;;;;4978410;28;20611;-83
2023/08/17 04:47:06;;;;;;;7.95;7.10;;;24.90;68.80;;;;;;4978360;28;20723;-82
2023/08/17 04:49:33;;;;;;;7.10;6.35;;;24.80;69.50;;;;;;4978926;28;20190;-84
2023/08/17 04:52:02;;;;;;;6.93;6.20;;;24.70;69.80;;;;;;4978353;28;20228;-83
2023/08/17 04:54:29;;;;;;;7.20;6.50;;;24.60;70.10;;;;;;4979293;28;20201;-83
2023/08/17 04:56:57;;;;;;;7.32;6.03;;;24.50;70.90;;;;;;4995219;28;20224;-83
2023/08/17 04:59:25;;;;;;;10.27;7.38;;;24.40;71.50;;;;;;4995004;28;20193;-83
2023/08/17 05:01:54;;;;;;;7.63;6.80;;;24.50;70.90;;;;;;4981050;28;20213;-83
2023/08/17 05:04:21;;;;;;;9.95;6.55;;;24.60;70.50;;;;;;4997837;28;20283;-83
2023/08/17 05:06:48;;;;;;;7.93;6.85;;;24.50;70.70;;;;;;4981763;28;20271;-83
2023/08/17 05:09:16;;;;;;;7.40;6.68;;;24.40;72.30;;;;;;4965532;28;20201;-83
2023/08/17 05:11:43;;;;;;;7.60;6.90;;;24.40;71.30;;;;;;4981743;28;20695;-83
2023/08/17 05:14:11;;;;;;;8.55;7.13;;;24.40;71.90;;;;;;4997245;28;20284;-82
2023/08/17 05:16:39;;;;;;;8.23;7.43;;;24.40;71.80;;;;;;4996735;28;20624;-83
2023/08/17 05:19:06;;;;;;;8.25;7.45;;;24.50;71.80;;;;;;4997064;28;20322;-83
2023/08/17 05:21:33;;;;;;;7.95;6.68;;;24.40;72.00;;;;;;4997032;28;20229;-83
2023/08/17 05:24:00;;;;;;;7.82;6.97;;;24.40;72.60;;;;;;4981245;28;20236;-83
2023/08/17 05:26:28;;;;;;;8.32;6.97;;;24.30;72.90;;;;;;4981263;28;20412;-83
2023/08/17 05:28:55;;;;;;;8.43;7.60;;;24.30;72.50;;;;;;4981729;28;20208;-83
2023/08/17 05:31:25;;;;;;;9.05;6.95;;;24.30;72.90;;;;;;4981804;28;20210;-83
2023/08/17 05:33:53;;;;;;;8.77;7.28;;;24.20;73.20;;;;;;4981566;28;20663;-83
2023/08/17 05:36:23;;;;;;;8.13;7.32;;;24.10;72.80;;;;;;4997816;28;20197;-83
2023/08/17 05:38:49;;;;;;;8.27;6.80;;;24.10;73.10;;;;;;4987528;28;20257;-83
2023/08/17 05:41:17;;;;;;;12.93;7.32;;;24.00;73.80;;;;;;5003906;28;20292;-84
2023/08/17 05:43:46;;;;;;;8.57;7.68;;;23.90;73.80;;;;;;5019972;28;20216;-82
2023/08/17 05:46:12;;;;;;;8.38;7.30;;;24.00;74.30;;;;;;5019950;28;20197;-81
2023/08/17 05:48:41;;;;;;;8.90;7.97;;;24.10;74.40;;;;;;5002755;28;20205;-84
2023/08/17 05:51:07;;;;;;;10.23;8.00;;;24.10;73.90;;;;;;4997001;28;20264;-84
2023/08/17 05:53:35;;;;;;;8.60;7.75;;;24.10;73.50;;;;;;4980477;28;20221;-82
2023/08/17 05:56:01;;;;;;;8.23;7.32;;;24.10;73.70;;;;;;4979586;28;20211;-82
2023/08/17 05:58:28;;;;;;;9.48;8.48;;;24.10;73.70;;;;;;4979752;28;20552;-82
2023/08/17 06:01:07;;;;;;;9.43;8.50;;;24.20;73.60;;;;;;4979910;28;20229;-82
2023/08/17 06:03:35;;;;;;;12.32;11.02;;;24.10;73.40;;;;;;4995848;28;20300;-82
2023/08/17 06:06:02;;;;;;;10.70;9.63;;;24.20;71.90;;;;;;4979820;28;20240;-82
2023/08/17 06:08:29;;;;;;;10.60;9.60;;;24.10;72.90;;;;;;4979439;28;20231;-81
2023/08/17 06:10:57;;;;;;;10.50;9.50;;;24.10;73.70;;;;;;4995661;28;20316;-81
2023/08/17 06:13:24;;;;;;;11.20;9.30;;;24.10;74.20;;;;;;4995286;28;20193;-82
2023/08/17 06:15:51;;;;;;;11.25;8.02;;;24.10;74.20;;;;;;4982042;28;20208;-82
2023/08/17 06:18:20;;;;;;;8.30;6.45;;;24.10;74.10;;;;;;4978994;28;20205;-82
2023/08/17 06:20:50;;;;;;;6.72;6.00;;;24.10;73.50;;;;;;4978866;28;20229;-82
2023/08/17 06:23:17;;;;;;;7.28;6.03;;;24.20;72.80;;;;;;4995468;28;20200;-82
2023/08/17 06:25:44;;;;;;;5.60;5.10;;;24.20;72.30;;;;;;4979514;28;20197;-83
2023/08/17 06:28:11;;;;;;;6.68;5.97;;;24.30;71.80;;;;;;4997743;28;20197;-81
2023/08/17 06:30:38;;;;;;;7.30;5.10;;;24.30;71.40;;;;;;4996410;28;20224;-82
2023/08/17 06:33:06;;;;;;;6.13;5.43;;;24.50;71.00;;;;;;4980274;28;20205;-82
2023/08/17 06:35:34;;;;;;;6.25;5.65;;;24.50;70.50;;;;;;4980100;28;20201;-82
2023/08/17 06:38:01;;;;;;;6.00;5.50;;;24.60;70.20;;;;;;4996041;28;20280;-82
2023/08/17 06:40:28;;;;;;;6.30;5.70;;;24.70;69.80;;;;;;4979816;28;20234;-82
2023/08/17 06:42:55;;;;;;;5.90;5.40;;;24.70;69.40;;;;;;4996059;28;20212;-82
2023/08/17 06:45:22;;;;;;;6.88;5.22;;;24.80;69.30;;;;;;4979394;28;20189;-82
2023/08/17 06:47:50;;;;;;;6.68;5.95;;;24.90;69.10;;;;;;4995556;28;20205;-82
2023/08/17 06:50:17;;;;;;;5.72;5.22;;;24.90;68.80;;;;;;4979334;28;20248;-82
2023/08/17 06:52:45;;;;;;;5.68;5.18;;;24.90;68.60;;;;;;4996026;28;20235;-83
2023/08/17 06:55:12;;;;;;;6.18;5.57;;;24.90;68.40;;;;;;4995974;28;20288;-82
2023/08/17 06:57:39;;;;;;;6.15;5.55;;;25.00;68.20;;;;;;4995563;28;20204;-81
2023/08/17 07:00:07;;;;;;;6.07;5.50;;;25.00;68.00;;;;;;4979945;28;20204;-82
2023/08/17 07:02:34;;;;;;;6.07;5.47;;;25.00;68.10;;;;;;4980217;28;20243;-82
2023/08/17 07:05:01;;;;;;;7.70;5.63;;;25.10;67.90;;;;;;4978583;28;20256;-82
2023/08/17 07:07:28;;;;;;;6.38;5.68;;;25.10;67.80;;;;;;4978897;28;20193;-82
2023/08/17 07:09:57;;;;;;;6.40;5.80;;;25.10;67.50;;;;;;4978296;28;20205;-82
2023/08/17 07:12:24;;;;;;;6.40;5.78;;;25.20;67.30;;;;;;4978428;28;20288;-82
2023/08/17 07:14:51;;;;;;;6.20;5.60;;;25.30;67.00;;;;;;4978080;28;20238;-82
2023/08/17 07:17:18;;;;;;;6.75;6.05;;;25.30;66.70;;;;;;4995808;28;20188;-82
2023/08/17 07:19:45;;;;;;;5.97;5.38;;;25.40;66.50;;;;;;4994976;28;20307;-82
2023/08/17 07:22:12;;;;;;;5.50;5.00;;;25.40;66.30;;;;;;4962799;28;20320;-81
2023/08/17 07:24:39;;;;;;;7.05;5.28;;;25.50;66.10;;;;;;4978159;28;20193;-82
2023/08/17 07:27:07;;;;;;;6.13;5.53;;;25.60;65.90;;;;;;4978298;28;20205;-82
2023/08/17 07:29:35;;;;;;;6.07;5.10;;;25.70;65.70;;;;;;4994504;28;20255;-82
2023/08/17 07:32:02;;;;;;;6.90;5.80;;;25.80;65.30;;;;;;4994415;28;20217;-82
2023/08/17 07:34:30;;;;;;;5.68;5.13;;;25.90;64.90;;;;;;4977895;28;20197;-82
2023/08/17 07:36:56;;;;;;;7.68;5.85;;;26.00;64.40;;;;;;4994293;28;20211;-82
2023/08/17 07:39:25;;;;;;;6.57;5.97;;;26.20;64.00;;;;;;4978212;28;20196;-82
2023/08/17 07:41:51;;;;;;;6.00;5.35;;;26.30;63.20;;;;;;4995469;28;20694;-82
2023/08/17 07:44:20;;;;;;;6.05;5.55;;;26.60;62.60;;;;;;4978223;28;20259;-82
2023/08/17 07:46:47;;;;;;;5.55;5.03;;;26.70;61.90;;;;;;4994738;28;20208;-82
2023/08/17 07:49:13;;;;;;;6.03;5.45;;;26.90;61.20;;;;;;4977902;28;20251;-82
2023/08/17 07:51:41;;;;;;;6.00;5.40;;;27.00;60.70;;;;;;4977969;28;20213;-82
2023/08/17 07:54:08;;;;;;;6.07;5.53;;;27.10;60.50;;;;;;4978052;28;20228;-82
2023/08/17 07:56:35;;;;;;;6.07;5.40;;;27.20;60.30;;;;;;4978539;28;20576;-82
2023/08/17 07:59:03;;;;;;;5.88;5.32;;;27.20;60.10;;;;;;4994111;28;20201;-82
2023/08/17 08:01:31;;;;;;;6.10;5.50;;;27.30;59.90;;;;;;4977908;28;20691;-82
2023/08/17 08:03:58;;;;;;;6.53;5.93;;;27.40;59.70;;;;;;4978752;28;20207;-82
2023/08/17 08:06:25;;;;;;;6.13;5.53;;;27.50;59.40;;;;;;4977678;28;20204;-82
2023/08/17 08:08:52;;;;;;;6.15;5.55;;;27.50;59.20;;;;;;4978010;28;20259;-82
2023/08/17 08:11:19;;;;;;;6.38;5.78;;;27.60;59.10;;;;;;4977848;28;20209;-82
2023/08/17 08:13:46;;;;;;;5.38;4.93;;;27.60;59.20;;;;;;4977625;28;20205;-82
2023/08/17 08:16:13;;;;;;;6.30;5.70;;;27.60;59.20;;;;;;4978419;28;20212;-81
2023/08/17 08:18:43;;;;;;;6.32;5.75;;;27.60;58.90;;;;;;4995004;28;20209;-82
2023/08/17 08:21:10;;;;;;;7.78;6.25;;;27.70;58.70;;;;;;4977951;28;20216;-82
2023/08/17 08:23:37;;;;;;;7.28;6.13;;;27.70;58.60;;;;;;4978368;28;20201;-82
2023/08/17 08:26:04;;;;;;;6.40;5.80;;;27.80;58.60;;;;;;4977920;28;20205;-81
2023/08/17 08:28:31;;;;;;;6.70;6.03;;;27.90;58.40;;;;;;4977310;28;20209;-81
2023/08/17 08:31:02;;;;;;;6.03;5.45;;;27.90;58.20;;;;;;4994526;28;20224;-81
2023/08/17 08:33:29;;;;;;;7.90;5.40;;;28.10;58.20;;;;;;4995578;28;20655;-81
2023/08/17 08:35:58;;;;;;;4.97;4.47;;;28.20;57.80;;;;;;4979349;28;20216;-81
2023/08/17 08:38:25;;;;;;;5.38;4.85;;;28.30;57.60;;;;;;4982007;28;20243;-81
2023/08/17 08:40:52;;;;;;;4.93;4.53;;;28.40;57.40;;;;;;4982842;28;20331;-81
2023/08/17 08:43:19;;;;;;;5.38;4.97;;;28.50;57.20;;;;;;4998890;28;20256;-81
2023/08/17 08:45:46;;;;;;;4.93;4.53;;;28.50;56.90;;;;;;4998468;28;20201;-81
2023/08/17 08:48:13;;;;;;;4.88;4.40;;;28.60;57.30;;;;;;4982014;28;20200;-81
2023/08/17 08:50:41;;;;;;;5.20;4.70;;;28.60;56.50;;;;;;4965765;28;20221;-81
2023/08/17 08:53:12;;;;;;;5.22;4.72;;;28.60;56.30;;;;;;4981670;28;20200;-81
2023/08/17 08:55:39;;;;;;;4.80;4.40;;;28.60;56.40;;;;;;4999801;28;20260;-81
2023/08/17 08:58:07;;;;;;;6.25;4.80;;;28.60;56.30;;;;;;4981837;28;20197;-81
2023/08/17 09:00:34;;;;;;;4.70;4.35;;;28.60;56.50;;;;;;4981878;28;20334;-81
2023/08/17 09:03:02;;;;;;;5.07;4.63;;;28.50;56.60;;;;;;4997352;28;20204;-81
2023/08/17 09:05:29;;;;;;;5.00;4.40;;;28.60;56.60;;;;;;4980908;28;20196;-81
2023/08/17 09:07:57;;;;;;;4.55;4.15;;;28.60;56.40;;;;;;4964999;28;20570;-81
2023/08/17 09:10:25;;;;;;;4.97;4.50;;;28.70;56.20;;;;;;4998041;28;20217;-81
2023/08/17 09:12:52;;;;;;;4.82;4.43;;;28.70;55.90;;;;;;4980945;28;20219;-81
2023/08/17 09:15:19;;;;;;;5.00;4.60;;;28.80;55.80;;;;;;4981123;28;20196;-81
2023/08/17 09:17:49;;;;;;;4.50;4.10;;;28.90;55.70;;;;;;4981065;28;20201;-81
2023/08/17 09:20:38;;;;;;;4.45;4.15;;;29.00;55.50;;;;;;4981116;28;20757;-81
2023/08/17 09:23:06;;;;;;;4.93;4.28;;;29.00;55.30;;;;;;4981125;28;20299;-81
2023/08/17 09:25:34;;;;;;;4.88;4.47;;;29.10;55.30;;;;;;4998430;28;20244;-82
2023/08/17 09:28:03;;;;;;;4.90;4.50;;;29.10;55.10;;;;;;4980576;28;20625;-81
2023/08/17 09:30:30;;;;;;;4.40;4.10;;;29.10;55.10;;;;;;4980433;28;20217;-81
2023/08/17 09:32:57;;;;;;;6.25;4.18;;;29.10;54.90;;;;;;4996477;28;20189;-81
2023/08/17 09:35:24;;;;;;;4.70;4.30;;;29.20;54.90;;;;;;4996268;28;20647;-81
2023/08/17 09:37:51;;;;;;;4.80;4.38;;;29.20;54.90;;;;;;4997685;28;20709;-81
2023/08/17 09:40:19;;;;;;;4.78;4.38;;;29.20;54.80;;;;;;4997556;28;20579;-81
2023/08/17 09:42:47;;;;;;;4.45;4.07;;;29.20;54.70;;;;;;4980147;28;20225;-81
2023/08/17 09:45:14;;;;;;;4.25;3.95;;;29.20;54.70;;;;;;4997737;28;20214;-81
2023/08/17 09:47:43;;;;;;;4.57;4.18;;;29.30;54.60;;;;;;4995684;28;20267;-81
2023/08/17 09:50:10;;;;;;;4.68;3.72;;;29.30;54.60;;;;;;4997832;28;20185;-81
2023/08/17 09:52:39;;;;;;;4.85;4.50;;;29.30;54.60;;;;;;5000083;28;20216;-81
2023/08/17 09:55:08;;;;;;;4.38;4.00;;;29.30;54.60;;;;;;5010436;28;20247;-81
2023/08/17 09:57:36;;;;;;;4.90;4.50;;;29.30;54.60;;;;;;4993942;28;20196;-81
2023/08/17 10:00:06;;;;;;;4.72;4.32;;;29.20;54.80;;;;;;4990411;28;20219;-81
2023/08/17 10:02:33;;;;;;;4.47;4.10;;;29.20;54.80;;;;;;4999927;28;20215;-81
2023/08/17 10:05:01;;;;;;;4.40;4.00;;;29.20;55.60;;;;;;4979745;28;20196;-81
2023/08/17 10:07:30;;;;;;;4.28;3.88;;;29.10;55.50;;;;;;4995936;28;20197;-81
2023/08/17 10:10:00;;;;;;;4.20;3.80;;;29.20;54.90;;;;;;4982243;28;20200;-81
2023/08/17 10:12:28;;;;;;;4.30;4.00;;;29.20;54.90;;;;;;5001028;28;20220;-81
2023/08/17 10:15:06;;;;;;;4.55;4.15;;;29.10;54.80;;;;;;5001653;28;20283;-81
2023/08/17 10:17:39;;;;;;;4.80;4.28;;;29.20;54.90;;;;;;4981496;28;20255;-81
2023/08/17 10:20:08;;;;;;;3.95;3.65;;;29.10;55.00;;;;;;4980509;28;20204;-81
2023/08/17 10:22:42;;;;;;;4.32;4.03;;;29.10;55.70;;;;;;4964282;28;20217;-81
2023/08/17 10:25:11;;;;;;;4.45;3.67;;;29.10;55.10;;;;;;4995759;28;20200;-81
2023/08/17 10:27:38;;;;;;;4.20;3.90;;;29.00;55.10;;;;;;4995690;28;20640;-81
2023/08/17 10:30:06;;;;;;;4.43;3.88;;;29.00;55.20;;;;;;4979389;28;20283;-81
2023/08/17 10:32:34;;;;;;;4.32;4.00;;;29.00;55.30;;;;;;4980062;28;20220;-81
2023/08/17 10:35:02;;;;;;;4.30;3.90;;;29.00;55.40;;;;;;4997690;28;20201;-81
2023/08/17 10:37:29;;;;;;;4.35;4.00;;;29.00;55.30;;;;;;4982502;28;20338;-81
2023/08/17 10:39:57;;;;;;;4.10;3.78;;;29.00;55.40;;;;;;4981993;28;20201;-81
2023/08/17 10:42:31;;;;;;;3.92;3.63;;;29.00;55.40;;;;;;4995109;28;20251;-81
2023/08/17 10:44:58;;;;;;;3.60;3.40;;;28.90;55.30;;;;;;4978719;28;20277;-81
2023/08/17 10:47:26;;;;;;;4.38;3.97;;;29.00;55.30;;;;;;4994813;28;20197;-81
2023/08/17 10:49:57;;;;;;;4.00;3.70;;;28.90;55.30;;;;;;4978596;28;20568;-81
2023/08/17 10:52:28;;;;;;;3.95;3.65;;;29.00;55.30;;;;;;4978682;28;20200;-82
2023/08/17 10:54:56;;;;;;;4.22;3.90;;;29.00;55.30;;;;;;4978496;28;20201;-84
2023/08/17 10:57:28;;;;;;;3.90;3.60;;;28.90;55.30;;;;;;4994912;28;20204;-81
2023/08/17 11:00:10;;;;;;;3.90;3.60;;;29.00;55.40;;;;;;4978506;28;20201;-81
2023/08/17 11:02:38;;;;;;;3.97;3.67;;;28.90;55.50;;;;;;4979421;28;20556;-81
2023/08/17 11:05:08;;;;;;;4.38;3.72;;;28.90;55.50;;;;;;4994582;28;20283;-80
2023/08/17 11:07:42;;;;;;;4.28;3.97;;;28.90;55.70;;;;;;4978628;28;20205;-81
2023/08/17 11:10:13;;;;;;;3.90;3.55;;;28.80;55.70;;;;;;4994862;28;20255;-81
2023/08/17 11:12:42;;;;;;;4.30;4.00;;;28.80;55.80;;;;;;4995086;28;20647;-81
2023/08/17 11:15:10;;;;;;;3.67;3.38;;;28.80;55.90;;;;;;4995726;28;20228;-81
2023/08/17 11:17:37;;;;;;;4.30;4.00;;;28.70;56.10;;;;;;4978920;28;20204;-81
2023/08/17 11:20:05;;;;;;;3.65;3.35;;;28.70;56.10;;;;;;4979134;28;20655;-81
2023/08/17 11:22:34;;;;;;;3.65;3.35;;;28.70;56.30;;;;;;4995291;28;20248;-81
2023/08/17 11:25:01;;;;;;;3.95;3.65;;;28.70;56.40;;;;;;4979253;28;20200;-81
2023/08/17 11:27:31;;;;;;;5.38;4.05;;;28.60;56.30;;;;;;4995902;28;20228;-81
2023/08/17 11:29:58;;;;;;;3.80;3.50;;;28.60;56.40;;;;;;4996451;28;20188;-81
2023/08/17 11:32:25;;;;;;;4.03;3.70;;;28.60;56.40;;;;;;4995597;28;20196;-82
2023/08/17 11:34:52;;;;;;;3.63;3.42;;;28.60;56.40;;;;;;4979697;28;20193;-81
2023/08/17 11:37:20;;;;;;;4.10;3.80;;;28.60;56.40;;;;;;4979626;28;20251;-81
2023/08/17 11:39:48;;;;;;;4.20;3.90;;;28.60;56.30;;;;;;4986720;28;20193;-81
2023/08/17 11:42:15;;;;;;;3.97;3.67;;;28.60;56.40;;;;;;4985047;28;20303;-80
2023/08/17 11:44:43;;;;;;;4.22;3.90;;;28.60;56.40;;;;;;4995182;28;20204;-81
2023/08/17 11:47:11;;;;;;;3.70;3.40;;;28.60;56.40;;;;;;4979154;28;20193;-81
2023/08/17 11:49:39;;;;;;;4.13;3.80;;;28.60;56.30;;;;;;4979326;28;20231;-81
2023/08/17 11:52:06;;;;;;;4.10;3.80;;;28.60;56.40;;;;;;4978881;28;20270;-81
2023/08/17 11:54:34;;;;;;;3.70;3.45;;;28.60;56.30;;;;;;4979082;28;20263;-81
2023/08/17 11:57:02;;;;;;;3.85;3.55;;;28.60;57.00;;;;;;4994932;28;20212;-81
2023/08/17 11:59:31;;;;;;;4.20;3.80;;;28.60;56.40;;;;;;4994852;28;20679;-81
2023/08/17 12:01:58;;;;;;;3.88;3.55;;;28.60;56.50;;;;;;4978437;28;20651;-81
2023/08/17 12:04:26;;;;;;;3.88;3.53;;;28.60;56.50;;;;;;4994042;28;20201;-81
2023/08/17 12:06:53;;;;;;;3.40;3.20;;;28.60;56.60;;;;;;4993891;28;20197;-81
2023/08/17 12:09:20;;;;;;;3.88;3.58;;;28.60;56.70;;;;;;4978499;28;20201;-81
2023/08/17 12:11:47;;;;;;;4.07;3.78;;;28.50;56.70;;;;;;4998527;28;20220;-81
2023/08/17 12:14:16;;;;;;;4.10;3.80;;;28.50;56.80;;;;;;4982555;28;20207;-81
2023/08/17 12:16:47;;;;;;;3.97;3.67;;;28.50;57.00;;;;;;4998036;28;20652;-81
2023/08/17 12:19:14;;;;;;;4.05;3.70;;;28.50;57.00;;;;;;4998900;28;20223;-81
2023/08/17 12:21:42;;;;;;;3.90;3.60;;;28.50;57.00;;;;;;4998967;28;20205;-81
2023/08/17 12:24:10;;;;;;;3.80;3.50;;;28.40;57.10;;;;;;4981344;28;20206;-81
2023/08/17 12:26:37;;;;;;;3.60;3.30;;;28.40;57.20;;;;;;4965554;28;20201;-81
2023/08/17 12:29:06;;;;;;;3.95;3.70;;;28.40;57.30;;;;;;4980872;28;20275;-81
2023/08/17 12:31:36;;;;;;;3.78;3.47;;;28.30;57.20;;;;;;4981545;28;20228;-81
2023/08/17 12:34:05;;;;;;;3.88;3.58;;;28.30;57.30;;;;;;4982997;28;20197;-81
2023/08/17 12:36:32;;;;;;;3.78;3.47;;;28.30;57.50;;;;;;4982574;28;20200;-81
2023/08/17 12:38:59;;;;;;;4.03;3.72;;;28.20;57.50;;;;;;4999189;28;20201;-81
2023/08/17 12:41:27;;;;;;;3.78;3.47;;;28.30;57.60;;;;;;4966764;28;20650;-80
2023/08/17 12:43:54;;;;;;;3.72;3.42;;;28.20;57.50;;;;;;4998127;28;20224;-81
2023/08/17 12:46:21;;;;;;;4.07;3.67;;;28.20;57.60;;;;;;4982235;28;20201;-81
2023/08/17 12:48:50;;;;;;;3.78;3.47;;;28.20;57.70;;;;;;4983164;28;20605;-81